createdAt,value
2022-12-23T00:02:43.609Z,18.81
2022-12-23T00:08:06.653Z,18.79
2022-12-23T00:13:46.648Z,18.76
2022-12-23T00:19:08.363Z,18.72
2022-12-23T00:24:30.070Z,18.68
2022-12-23T00:29:51.885Z,18.65
2022-12-23T00:35:13.615Z,18.64
2022-12-23T00:40:54.033Z,18.61
2022-12-23T00:46:15.877Z,18.59
2022-12-23T00:51:37.636Z,18.57
2022-12-23T00:57:00.128Z,18.55
2022-12-23T01:02:40.744Z,18.54
2022-12-23T01:08:07.951Z,18.52
2022-12-23T01:13:29.663Z,18.50
2022-12-23T01:18:51.345Z,18.50
2022-12-23T01:24:13.066Z,18.48
2022-12-23T01:29:34.888Z,18.46
2022-12-23T01:34:56.614Z,18.44
2022-12-23T01:40:18.459Z,18.42
2022-12-23T01:45:40.202Z,18.41
2022-12-23T01:51:08.981Z,18.41
2022-12-23T01:56:36.916Z,18.40
2022-12-23T02:02:17.695Z,18.38
2022-12-23T02:07:59.414Z,18.36
2022-12-23T02:13:29.595Z,18.34
2022-12-23T02:19:24.819Z,18.35
2022-12-23T02:25:31.930Z,18.33
2022-12-23T02:31:23.118Z,18.30
2022-12-23T02:37:00.092Z,18.30
2022-12-23T02:42:33.586Z,18.28
2022-12-23T02:48:12.480Z,18.28
2022-12-23T02:53:40.544Z,18.25
2022-12-23T02:59:06.834Z,18.24
2022-12-23T03:04:28.657Z,18.22
2022-12-23T03:10:08.558Z,18.23
2022-12-23T03:15:52.247Z,18.21
2022-12-23T03:21:35.282Z,18.20
2022-12-23T03:27:28.171Z,18.19
2022-12-23T03:32:55.365Z,18.17
2022-12-23T03:38:19.289Z,18.17
2022-12-23T03:43:51.227Z,18.15
2022-12-23T03:49:18.760Z,18.14
2022-12-23T03:54:48.430Z,18.14
2022-12-23T04:00:11.088Z,18.13
2022-12-23T04:05:36.587Z,18.13
2022-12-23T04:10:59.312Z,18.10
2022-12-23T04:16:21.256Z,18.10
2022-12-23T04:21:43.003Z,18.09
2022-12-23T04:27:05.133Z,18.08
2022-12-23T04:32:26.972Z,18.06
2022-12-23T04:37:48.759Z,18.07
2022-12-23T04:43:10.464Z,18.06
2022-12-23T04:48:32.166Z,18.05
2022-12-23T04:53:53.822Z,18.05
2022-12-23T04:59:15.541Z,18.04
2022-12-23T05:04:37.385Z,18.04
2022-12-23T05:10:02.132Z,18.02
2022-12-23T05:15:24.273Z,18.01
2022-12-23T05:20:46.360Z,18.01
2022-12-23T05:26:08.044Z,18.02
2022-12-23T05:31:29.769Z,18.00
2022-12-23T05:36:51.559Z,17.99
2022-12-23T05:42:13.856Z,17.98
2022-12-23T05:47:36.022Z,17.98
2022-12-23T05:52:57.986Z,17.98
2022-12-23T05:58:19.711Z,17.96
2022-12-23T06:03:41.450Z,17.96
2022-12-23T06:09:03.382Z,18.07
2022-12-23T06:14:28.863Z,18.41
2022-12-23T06:19:51.142Z,18.88
2022-12-23T06:25:12.952Z,19.36
2022-12-23T06:30:35.230Z,19.78
2022-12-23T06:35:56.929Z,20.06
2022-12-23T06:41:18.909Z,20.16
2022-12-23T06:46:40.603Z,20.16
2022-12-23T06:52:02.374Z,20.09
2022-12-23T06:57:24.048Z,19.98
2022-12-23T07:02:45.914Z,19.86
2022-12-23T07:08:07.718Z,19.74
2022-12-23T07:13:30.192Z,19.60
2022-12-23T07:18:52.089Z,19.49
2022-12-23T07:24:13.820Z,19.38
2022-12-23T07:29:35.539Z,19.32
2022-12-23T07:34:57.223Z,19.29
2022-12-23T07:40:19.019Z,19.30
2022-12-23T07:45:40.765Z,19.31
2022-12-23T07:51:03.972Z,19.35
2022-12-23T07:56:25.710Z,19.39
2022-12-23T08:01:47.540Z,19.54
2022-12-23T08:07:09.283Z,19.81
2022-12-23T08:12:30.955Z,20.06
2022-12-23T08:17:54.773Z,20.31
2022-12-23T08:23:21.417Z,20.48
2022-12-23T08:28:46.302Z,20.63
2022-12-23T08:34:08.319Z,20.75
2022-12-23T08:39:30.037Z,20.84
2022-12-23T08:44:51.700Z,20.89
2022-12-23T08:50:13.459Z,20.96
2022-12-23T08:55:43.827Z,20.98
2022-12-23T09:01:07.523Z,20.98
2022-12-23T09:06:34.292Z,20.97
2022-12-23T09:11:55.992Z,20.88
2022-12-23T09:17:17.904Z,20.80
2022-12-23T09:22:39.741Z,20.71
2022-12-23T09:28:01.459Z,20.58
2022-12-23T09:33:23.213Z,20.44
2022-12-23T09:38:45.251Z,20.31
2022-12-23T09:44:22.652Z,20.19
2022-12-23T09:50:03.322Z,20.07
2022-12-23T09:55:32.438Z,19.93
2022-12-23T10:01:27.832Z,19.85
2022-12-23T10:07:03.967Z,19.81
2022-12-23T10:12:28.248Z,19.77
2022-12-23T10:17:57.064Z,19.81
2022-12-23T10:23:31.355Z,19.80
2022-12-23T10:29:18.776Z,19.76
2022-12-23T10:35:05.487Z,19.71
2022-12-23T10:40:35.629Z,19.63
2022-12-23T10:46:29.228Z,19.58
2022-12-23T10:51:55.439Z,19.50
2022-12-23T10:57:19.744Z,19.45
2022-12-23T11:03:01.421Z,19.37
2022-12-23T11:08:25.356Z,19.31
2022-12-23T11:13:47.790Z,19.36
2022-12-23T11:19:15.354Z,19.42
2022-12-23T11:24:42.860Z,19.46
2022-12-23T11:30:05.692Z,19.57
2022-12-23T11:35:37.026Z,19.77
2022-12-23T11:40:59.422Z,19.91
2022-12-23T11:46:30.406Z,20.06
2022-12-23T11:52:01.933Z,20.17
2022-12-23T11:57:48.512Z,20.23
2022-12-23T12:03:18.919Z,20.25
2022-12-23T12:08:41.812Z,20.32
2022-12-23T12:14:06.613Z,20.37
2022-12-23T12:19:43.575Z,20.42
2022-12-23T12:25:19.991Z,20.45
2022-12-23T12:30:52.838Z,20.45
2022-12-23T12:36:25.895Z,20.42
2022-12-23T12:41:58.541Z,20.42
2022-12-23T12:53:22.039Z,20.47
2022-12-23T12:58:45.086Z,20.53
2022-12-23T13:04:38.986Z,20.61
2022-12-23T13:10:15.984Z,20.64
2022-12-23T13:15:50.418Z,20.62
2022-12-23T13:21:16.117Z,20.57
2022-12-23T13:26:54.425Z,20.50
2022-12-23T13:33:02.339Z,20.41
2022-12-23T13:38:47.091Z,20.28
2022-12-23T13:44:10.909Z,20.14
2022-12-23T13:49:41.427Z,20.05
2022-12-23T13:55:11.748Z,19.98
2022-12-23T14:00:35.421Z,19.87
2022-12-23T14:05:57.131Z,19.80
2022-12-23T14:11:30.493Z,19.83
2022-12-23T14:17:07.097Z,19.86
2022-12-23T14:22:54.690Z,19.90
2022-12-23T14:28:58.260Z,19.95
2022-12-23T14:34:20.381Z,20.01
2022-12-23T14:39:42.583Z,20.05
2022-12-23T14:45:34.104Z,20.11
2022-12-23T14:51:02.050Z,20.11
2022-12-23T14:56:38.734Z,20.12
2022-12-23T15:02:01.762Z,20.09
2022-12-23T15:07:29.824Z,20.07
2022-12-23T15:13:02.962Z,20.08
2022-12-23T15:18:25.692Z,20.07
2022-12-23T15:23:50.835Z,20.10
2022-12-23T15:29:15.244Z,20.17
2022-12-23T15:34:36.992Z,20.37
2022-12-23T15:40:09.564Z,20.59
2022-12-23T15:45:37.706Z,20.76
2022-12-23T15:51:05.479Z,20.83
2022-12-23T15:56:32.175Z,20.83
2022-12-23T16:01:54.205Z,20.86
2022-12-23T16:07:42.128Z,20.99
2022-12-23T16:13:04.079Z,21.12
2022-12-23T16:18:32.885Z,21.26
2022-12-23T16:23:55.441Z,21.33
2022-12-23T16:29:17.187Z,21.40
2022-12-23T16:34:38.896Z,21.45
2022-12-23T16:40:03.187Z,21.48
2022-12-23T16:45:24.868Z,21.46
2022-12-23T16:50:47.393Z,21.42
2022-12-23T16:56:14.281Z,21.41
2022-12-23T17:01:42.318Z,21.44
2022-12-23T17:07:09.437Z,21.45
2022-12-23T17:12:31.199Z,21.43
2022-12-23T17:17:53.327Z,21.36
2022-12-23T17:23:26.643Z,21.30
2022-12-23T17:28:48.386Z,21.21
2022-12-23T17:34:21.907Z,21.20
2022-12-23T17:39:45.174Z,21.15
2022-12-23T17:45:17.592Z,21.11
2022-12-23T17:50:41.091Z,21.07
2022-12-23T17:56:03.735Z,21.04
2022-12-23T18:01:27.023Z,21.01
2022-12-23T18:06:48.836Z,20.95
2022-12-23T18:12:34.259Z,20.86
2022-12-23T18:17:56.341Z,20.76
2022-12-23T18:23:27.150Z,20.68
2022-12-23T18:28:48.991Z,20.59
2022-12-23T18:34:18.177Z,20.49
2022-12-23T18:39:39.911Z,20.40
2022-12-23T18:45:01.686Z,20.31
2022-12-23T18:50:23.718Z,20.22
2022-12-23T18:55:45.468Z,20.19
2022-12-23T19:01:11.886Z,20.15
2022-12-23T19:06:33.699Z,20.13
2022-12-23T19:11:55.456Z,20.12
2022-12-23T19:17:17.683Z,20.15
2022-12-23T19:22:40.119Z,20.15
2022-12-23T19:28:01.925Z,20.18
2022-12-23T19:33:23.714Z,20.21
2022-12-23T19:38:45.703Z,20.22
2022-12-23T19:44:07.494Z,20.21
2022-12-23T19:49:29.231Z,20.33
2022-12-23T19:54:52.463Z,20.55
2022-12-23T20:00:16.101Z,20.83
2022-12-23T20:05:37.848Z,21.10
2022-12-23T20:11:11.356Z,21.32
2022-12-23T20:16:34.449Z,21.46
2022-12-23T20:21:56.213Z,21.55
2022-12-23T20:27:22.641Z,21.59
2022-12-23T20:32:47.847Z,21.64
2022-12-23T20:38:09.654Z,21.71
2022-12-23T20:43:34.413Z,21.85
2022-12-23T20:48:56.216Z,21.93
2022-12-23T20:54:18.040Z,21.94
2022-12-23T20:59:39.737Z,21.88
2022-12-23T21:05:01.480Z,21.80
2022-12-23T21:10:23.136Z,21.70
2022-12-23T21:15:44.848Z,21.59
2022-12-23T21:21:06.585Z,21.49
2022-12-23T21:26:30.495Z,21.39
2022-12-23T21:31:52.472Z,21.27
2022-12-23T21:37:14.300Z,21.15
2022-12-23T21:42:35.971Z,21.09
2022-12-23T21:47:57.673Z,21.00
2022-12-23T21:53:19.570Z,20.96
2022-12-23T21:58:42.029Z,20.84
2022-12-23T22:04:04.648Z,20.76
2022-12-23T22:09:26.338Z,20.69
2022-12-23T22:14:48.028Z,20.64
2022-12-23T22:20:10.151Z,20.55
2022-12-23T22:25:31.888Z,20.47
2022-12-23T22:30:53.576Z,20.39
2022-12-23T22:36:16.044Z,20.34
2022-12-23T22:41:37.769Z,20.26
2022-12-23T22:46:59.490Z,20.21
2022-12-23T22:52:21.238Z,20.17
2022-12-23T22:57:42.975Z,20.13
2022-12-23T23:03:04.702Z,20.08
2022-12-23T23:08:26.967Z,20.05
2022-12-23T23:13:48.915Z,20.01
2022-12-23T23:19:11.624Z,19.96
2022-12-23T23:24:34.327Z,19.90
2022-12-23T23:29:56.011Z,19.88
2022-12-23T23:35:17.746Z,19.85
2022-12-23T23:40:39.671Z,19.82
2022-12-23T23:46:01.474Z,19.78
2022-12-23T23:51:23.619Z,19.76
2022-12-23T23:56:45.310Z,19.71
